Rock Hill, South Carolina
Current Conditions -  °F | °C
As of 6:54 AM on Monday 24 Nov 2014 (Local Time) from KUZA Reporting Station
Overcast Overcast  
Wind Chill: 60°   Ceiling: 2600
Heat Index: 60°   Visibility: 10mi
Dew Point: 57°   Wind: 10mph
Humidity: 90%   Direction: 200°SSW
Pressure: 29.79"   Gusts: NA
Location:  34.92°N, 81.03°W
Report Text: KUZA 241154Z AUTO 20009KT 10SM BKN026 OVC031 16/14 A2979 RMK AO2 SLP081 70126 T01560139 10167 20156 51005
Loading
Personal Weather Stations






























Interactive Weather Map New forecast layout! Learn more

10-Day Weather Forecast

Advertisements
Track Severe Weather on mobile